sensor_id;sensor_type;location;lat;lon;timestamp;P1;durP1;ratioP1;P2;durP2;ratioP2
24873;SDS011;12945;42.648;23.370;2023-09-19T00:00:42;7.80;;;4.90;;
24873;SDS011;12945;42.648;23.370;2023-09-19T00:03:08;7.63;;;4.72;;
24873;SDS011;12945;42.648;23.370;2023-09-19T00:05:34;7.32;;;5.15;;
24873;SDS011;12945;42.648;23.370;2023-09-19T00:08:00;9.15;;;4.60;;
24873;SDS011;12945;42.648;23.370;2023-09-19T00:10:26;7.80;;;5.00;;
24873;SDS011;12945;42.648;23.370;2023-09-19T00:12:52;7.28;;;5.38;;
24873;SDS011;12945;42.648;23.370;2023-09-19T00:15:20;9.60;;;5.22;;
24873;SDS011;12945;42.648;23.370;2023-09-19T00:17:46;11.88;;;4.90;;
24873;SDS011;12945;42.648;23.370;2023-09-19T00:20:12;9.00;;;4.78;;
24873;SDS011;12945;42.648;23.370;2023-09-19T00:22:41;7.85;;;4.97;;
24873;SDS011;12945;42.648;23.370;2023-09-19T00:25:10;9.10;;;4.80;;
24873;SDS011;12945;42.648;23.370;2023-09-19T00:27:39;8.02;;;5.10;;
24873;SDS011;12945;42.648;23.370;2023-09-19T00:30:05;8.57;;;5.43;;
24873;SDS011;12945;42.648;23.370;2023-09-19T00:32:30;10.75;;;5.03;;
24873;SDS011;12945;42.648;23.370;2023-09-19T00:34:56;9.18;;;5.32;;
24873;SDS011;12945;42.648;23.370;2023-09-19T00:37:21;7.55;;;4.85;;
24873;SDS011;12945;42.648;23.370;2023-09-19T00:39:46;9.82;;;5.10;;
24873;SDS011;12945;42.648;23.370;2023-09-19T00:42:17;6.88;;;4.97;;
24873;SDS011;12945;42.648;23.370;2023-09-19T00:44:44;9.82;;;5.28;;
24873;SDS011;12945;42.648;23.370;2023-09-19T00:47:09;9.30;;;5.20;;
24873;SDS011;12945;42.648;23.370;2023-09-19T00:49:40;7.03;;;5.22;;
24873;SDS011;12945;42.648;23.370;2023-09-19T00:52:06;12.82;;;5.40;;
24873;SDS011;12945;42.648;23.370;2023-09-19T00:54:31;12.23;;;5.55;;
24873;SDS011;12945;42.648;23.370;2023-09-19T00:56:58;10.98;;;5.32;;
24873;SDS011;12945;42.648;23.370;2023-09-19T00:59:24;9.40;;;5.43;;
24873;SDS011;12945;42.648;23.370;2023-09-19T01:01:49;6.40;;;5.05;;
24873;SDS011;12945;42.648;23.370;2023-09-19T01:04:18;8.70;;;5.93;;
24873;SDS011;12945;42.648;23.370;2023-09-19T01:06:44;7.05;;;5.40;;
24873;SDS011;12945;42.648;23.370;2023-09-19T01:09:10;9.48;;;5.20;;
24873;SDS011;12945;42.648;23.370;2023-09-19T01:11:38;6.70;;;5.38;;
24873;SDS011;12945;42.648;23.370;2023-09-19T01:16:36;11.18;;;5.80;;
24873;SDS011;12945;42.648;23.370;2023-09-19T01:21:46;11.70;;;5.47;;
24873;SDS011;12945;42.648;23.370;2023-09-19T01:29:23;9.23;;;6.03;;
24873;SDS011;12945;42.648;23.370;2023-09-19T01:31:57;8.80;;;5.93;;
24873;SDS011;12945;42.648;23.370;2023-09-19T01:34:22;9.55;;;5.65;;
24873;SDS011;12945;42.648;23.370;2023-09-19T01:36:48;14.13;;;5.93;;
24873;SDS011;12945;42.648;23.370;2023-09-19T01:39:13;9.98;;;6.18;;
24873;SDS011;12945;42.648;23.370;2023-09-19T01:44:10;8.73;;;6.00;;
24873;SDS011;12945;42.648;23.370;2023-09-19T01:46:39;9.20;;;5.97;;
24873;SDS011;12945;42.648;23.370;2023-09-19T01:54:09;8.13;;;5.72;;
24873;SDS011;12945;42.648;23.370;2023-09-19T01:59:24;11.52;;;6.25;;
24873;SDS011;12945;42.648;23.370;2023-09-19T02:01:52;10.77;;;5.75;;
24873;SDS011;12945;42.648;23.370;2023-09-19T02:04:18;11.43;;;5.63;;
24873;SDS011;12945;42.648;23.370;2023-09-19T02:06:43;8.85;;;5.82;;
24873;SDS011;12945;42.648;23.370;2023-09-19T02:09:12;8.80;;;5.90;;
24873;SDS011;12945;42.648;23.370;2023-09-19T02:11:37;8.23;;;5.50;;
24873;SDS011;12945;42.648;23.370;2023-09-19T02:14:04;12.07;;;6.30;;
24873;SDS011;12945;42.648;23.370;2023-09-19T02:16:33;7.18;;;5.55;;
24873;SDS011;12945;42.648;23.370;2023-09-19T02:18:58;9.18;;;6.38;;
24873;SDS011;12945;42.648;23.370;2023-09-19T02:21:25;10.75;;;6.18;;
24873;SDS011;12945;42.648;23.370;2023-09-19T02:23:50;8.35;;;5.78;;
24873;SDS011;12945;42.648;23.370;2023-09-19T02:26:16;7.88;;;6.18;;
24873;SDS011;12945;42.648;23.370;2023-09-19T02:28:43;13.02;;;6.85;;
24873;SDS011;12945;42.648;23.370;2023-09-19T02:31:11;12.05;;;6.75;;
24873;SDS011;12945;42.648;23.370;2023-09-19T02:33:36;10.70;;;6.20;;
24873;SDS011;12945;42.648;23.370;2023-09-19T02:36:02;8.10;;;6.28;;
24873;SDS011;12945;42.648;23.370;2023-09-19T02:38:28;15.30;;;6.70;;
24873;SDS011;12945;42.648;23.370;2023-09-19T02:40:54;9.10;;;5.80;;
24873;SDS011;12945;42.648;23.370;2023-09-19T02:43:20;13.20;;;6.60;;
24873;SDS011;12945;42.648;23.370;2023-09-19T02:45:46;7.53;;;5.90;;
24873;SDS011;12945;42.648;23.370;2023-09-19T02:48:20;9.73;;;6.38;;
24873;SDS011;12945;42.648;23.370;2023-09-19T02:50:48;8.60;;;6.43;;
24873;SDS011;12945;42.648;23.370;2023-09-19T02:53:14;15.07;;;7.05;;
24873;SDS011;12945;42.648;23.370;2023-09-19T02:55:40;9.68;;;5.93;;
24873;SDS011;12945;42.648;23.370;2023-09-19T02:58:05;12.45;;;6.45;;
24873;SDS011;12945;42.648;23.370;2023-09-19T03:00:32;11.07;;;6.38;;
24873;SDS011;12945;42.648;23.370;2023-09-19T03:03:00;12.70;;;6.57;;
24873;SDS011;12945;42.648;23.370;2023-09-19T03:05:27;12.48;;;7.13;;
24873;SDS011;12945;42.648;23.370;2023-09-19T03:07:56;17.70;;;6.60;;
24873;SDS011;12945;42.648;23.370;2023-09-19T03:10:21;10.27;;;6.38;;
24873;SDS011;12945;42.648;23.370;2023-09-19T03:12:47;13.82;;;6.78;;
24873;SDS011;12945;42.648;23.370;2023-09-19T03:15:12;11.43;;;6.80;;
24873;SDS011;12945;42.648;23.370;2023-09-19T03:17:42;12.73;;;6.63;;
24873;SDS011;12945;42.648;23.370;2023-09-19T03:20:08;9.63;;;6.05;;
24873;SDS011;12945;42.648;23.370;2023-09-19T03:22:33;13.93;;;6.53;;
24873;SDS011;12945;42.648;23.370;2023-09-19T03:24:59;11.90;;;6.82;;
24873;SDS011;12945;42.648;23.370;2023-09-19T03:27:25;13.02;;;6.70;;
24873;SDS011;12945;42.648;23.370;2023-09-19T03:29:52;12.07;;;7.10;;
24873;SDS011;12945;42.648;23.370;2023-09-19T03:32:17;10.07;;;6.43;;
24873;SDS011;12945;42.648;23.370;2023-09-19T03:34:42;10.80;;;6.75;;
24873;SDS011;12945;42.648;23.370;2023-09-19T03:37:11;11.35;;;6.70;;
24873;SDS011;12945;42.648;23.370;2023-09-19T03:39:36;12.93;;;6.78;;
24873;SDS011;12945;42.648;23.370;2023-09-19T03:42:02;9.90;;;6.20;;
24873;SDS011;12945;42.648;23.370;2023-09-19T03:44:29;10.15;;;7.13;;
24873;SDS011;12945;42.648;23.370;2023-09-19T03:46:54;13.48;;;7.40;;
24873;SDS011;12945;42.648;23.370;2023-09-19T03:49:21;8.82;;;6.93;;
24873;SDS011;12945;42.648;23.370;2023-09-19T03:51:46;12.23;;;7.38;;
24873;SDS011;12945;42.648;23.370;2023-09-19T03:54:12;14.60;;;7.05;;
24873;SDS011;12945;42.648;23.370;2023-09-19T03:56:37;12.25;;;6.55;;
24873;SDS011;12945;42.648;23.370;2023-09-19T03:59:03;12.90;;;7.00;;
24873;SDS011;12945;42.648;23.370;2023-09-19T04:01:28;13.23;;;7.00;;
24873;SDS011;12945;42.648;23.370;2023-09-19T04:03:55;14.45;;;6.97;;
24873;SDS011;12945;42.648;23.370;2023-09-19T04:06:21;12.02;;;7.30;;
24873;SDS011;12945;42.648;23.370;2023-09-19T04:08:47;11.27;;;7.10;;
24873;SDS011;12945;42.648;23.370;2023-09-19T04:11:13;10.02;;;7.18;;
24873;SDS011;12945;42.648;23.370;2023-09-19T04:13:39;15.32;;;8.75;;
24873;SDS011;12945;42.648;23.370;2023-09-19T04:16:04;11.90;;;7.68;;
24873;SDS011;12945;42.648;23.370;2023-09-19T04:18:29;10.95;;;7.65;;
24873;SDS011;12945;42.648;23.370;2023-09-19T04:20:57;13.82;;;8.50;;
24873;SDS011;12945;42.648;23.370;2023-09-19T04:23:23;13.93;;;7.15;;
24873;SDS011;12945;42.648;23.370;2023-09-19T04:25:48;10.25;;;7.70;;
24873;SDS011;12945;42.648;23.370;2023-09-19T04:28:14;14.23;;;8.90;;
24873;SDS011;12945;42.648;23.370;2023-09-19T04:30:40;20.50;;;8.38;;
24873;SDS011;12945;42.648;23.370;2023-09-19T04:33:05;19.35;;;9.10;;
24873;SDS011;12945;42.648;23.370;2023-09-19T04:35:31;14.40;;;8.65;;
24873;SDS011;12945;42.648;23.370;2023-09-19T04:37:56;15.00;;;7.95;;
24873;SDS011;12945;42.648;23.370;2023-09-19T04:40:22;15.18;;;9.20;;
24873;SDS011;12945;42.648;23.370;2023-09-19T04:42:54;21.65;;;8.70;;
24873;SDS011;12945;42.648;23.370;2023-09-19T04:45:21;18.77;;;8.80;;
24873;SDS011;12945;42.648;23.370;2023-09-19T04:47:47;18.95;;;8.77;;
24873;SDS011;12945;42.648;23.370;2023-09-19T04:50:12;20.70;;;8.68;;
24873;SDS011;12945;42.648;23.370;2023-09-19T04:52:41;14.55;;;9.40;;
24873;SDS011;12945;42.648;23.370;2023-09-19T04:55:10;18.95;;;9.20;;
24873;SDS011;12945;42.648;23.370;2023-09-19T04:57:36;18.05;;;9.15;;
24873;SDS011;12945;42.648;23.370;2023-09-19T05:00:02;16.88;;;9.13;;
24873;SDS011;12945;42.648;23.370;2023-09-19T05:02:31;16.77;;;9.00;;
24873;SDS011;12945;42.648;23.370;2023-09-19T05:04:57;17.25;;;8.63;;
24873;SDS011;12945;42.648;23.370;2023-09-19T05:07:25;12.63;;;8.20;;
24873;SDS011;12945;42.648;23.370;2023-09-19T05:09:51;16.23;;;8.65;;
24873;SDS011;12945;42.648;23.370;2023-09-19T05:12:16;19.10;;;8.75;;
24873;SDS011;12945;42.648;23.370;2023-09-19T05:14:44;16.60;;;8.35;;
24873;SDS011;12945;42.648;23.370;2023-09-19T05:17:10;16.00;;;8.90;;
24873;SDS011;12945;42.648;23.370;2023-09-19T05:19:35;16.67;;;8.32;;
24873;SDS011;12945;42.648;23.370;2023-09-19T05:22:03;16.73;;;7.68;;
24873;SDS011;12945;42.648;23.370;2023-09-19T05:24:29;14.55;;;7.55;;
24873;SDS011;12945;42.648;23.370;2023-09-19T05:26:55;7.45;;;5.18;;
24873;SDS011;12945;42.648;23.370;2023-09-19T05:29:22;13.95;;;6.35;;
24873;SDS011;12945;42.648;23.370;2023-09-19T05:31:47;17.40;;;6.95;;
24873;SDS011;12945;42.648;23.370;2023-09-19T05:34:12;14.93;;;6.30;;
24873;SDS011;12945;42.648;23.370;2023-09-19T05:36:37;9.98;;;6.43;;
24873;SDS011;12945;42.648;23.370;2023-09-19T05:39:04;18.80;;;6.95;;
24873;SDS011;12945;42.648;23.370;2023-09-19T05:41:31;9.52;;;6.28;;
24873;SDS011;12945;42.648;23.370;2023-09-19T05:43:56;11.77;;;6.70;;
24873;SDS011;12945;42.648;23.370;2023-09-19T05:46:21;10.70;;;6.47;;
24873;SDS011;12945;42.648;23.370;2023-09-19T05:48:47;11.68;;;6.60;;
24873;SDS011;12945;42.648;23.370;2023-09-19T05:51:12;12.95;;;5.72;;
24873;SDS011;12945;42.648;23.370;2023-09-19T05:53:38;11.55;;;6.63;;
24873;SDS011;12945;42.648;23.370;2023-09-19T05:56:03;12.05;;;6.07;;
24873;SDS011;12945;42.648;23.370;2023-09-19T05:58:28;17.27;;;6.15;;
24873;SDS011;12945;42.648;23.370;2023-09-19T06:00:54;11.60;;;6.15;;
24873;SDS011;12945;42.648;23.370;2023-09-19T06:03:20;8.98;;;5.60;;
24873;SDS011;12945;42.648;23.370;2023-09-19T06:05:45;10.40;;;5.70;;
24873;SDS011;12945;42.648;23.370;2023-09-19T06:08:14;14.18;;;6.00;;
24873;SDS011;12945;42.648;23.370;2023-09-19T06:10:39;12.10;;;6.03;;
24873;SDS011;12945;42.648;23.370;2023-09-19T06:13:05;13.05;;;6.00;;
24873;SDS011;12945;42.648;23.370;2023-09-19T06:15:31;13.73;;;5.88;;
24873;SDS011;12945;42.648;23.370;2023-09-19T06:17:58;15.27;;;5.70;;
24873;SDS011;12945;42.648;23.370;2023-09-19T06:20:24;14.35;;;6.03;;
24873;SDS011;12945;42.648;23.370;2023-09-19T06:22:50;11.43;;;5.63;;
24873;SDS011;12945;42.648;23.370;2023-09-19T06:25:16;11.05;;;6.50;;
24873;SDS011;12945;42.648;23.370;2023-09-19T06:27:48;12.93;;;6.28;;
24873;SDS011;12945;42.648;23.370;2023-09-19T06:30:14;10.75;;;6.18;;
24873;SDS011;12945;42.648;23.370;2023-09-19T06:32:42;10.07;;;5.72;;
24873;SDS011;12945;42.648;23.370;2023-09-19T06:35:09;15.83;;;5.73;;
24873;SDS011;12945;42.648;23.370;2023-09-19T06:37:36;10.80;;;5.85;;
24873;SDS011;12945;42.648;23.370;2023-09-19T06:40:11;11.68;;;6.13;;
24873;SDS011;12945;42.648;23.370;2023-09-19T06:42:43;14.60;;;5.95;;
24873;SDS011;12945;42.648;23.370;2023-09-19T06:45:14;14.77;;;6.07;;
24873;SDS011;12945;42.648;23.370;2023-09-19T06:47:47;13.13;;;5.95;;
24873;SDS011;12945;42.648;23.370;2023-09-19T06:50:15;11.82;;;5.88;;
24873;SDS011;12945;42.648;23.370;2023-09-19T06:52:47;10.18;;;5.95;;
24873;SDS011;12945;42.648;23.370;2023-09-19T06:55:15;9.25;;;5.88;;
24873;SDS011;12945;42.648;23.370;2023-09-19T06:57:41;10.82;;;6.00;;
24873;SDS011;12945;42.648;23.370;2023-09-19T07:00:08;7.28;;;5.22;;
24873;SDS011;12945;42.648;23.370;2023-09-19T07:02:41;8.27;;;5.22;;
24873;SDS011;12945;42.648;23.370;2023-09-19T07:05:06;11.32;;;5.00;;
24873;SDS011;12945;42.648;23.370;2023-09-19T07:07:32;9.32;;;6.15;;
24873;SDS011;12945;42.648;23.370;2023-09-19T07:10:00;12.55;;;5.82;;
24873;SDS011;12945;42.648;23.370;2023-09-19T07:12:25;12.85;;;6.13;;
24873;SDS011;12945;42.648;23.370;2023-09-19T07:14:50;12.20;;;5.70;;
24873;SDS011;12945;42.648;23.370;2023-09-19T07:17:16;13.13;;;5.80;;
24873;SDS011;12945;42.648;23.370;2023-09-19T07:19:44;15.32;;;6.35;;
24873;SDS011;12945;42.648;23.370;2023-09-19T07:22:09;16.88;;;6.15;;
24873;SDS011;12945;42.648;23.370;2023-09-19T07:24:34;11.63;;;6.25;;
24873;SDS011;12945;42.648;23.370;2023-09-19T07:27:01;8.50;;;5.38;;
24873;SDS011;12945;42.648;23.370;2023-09-19T07:29:27;15.13;;;7.25;;
24873;SDS011;12945;42.648;23.370;2023-09-19T07:31:52;14.23;;;7.70;;
24873;SDS011;12945;42.648;23.370;2023-09-19T07:34:18;14.10;;;8.93;;
24873;SDS011;12945;42.648;23.370;2023-09-19T07:36:43;12.68;;;8.05;;
24873;SDS011;12945;42.648;23.370;2023-09-19T07:39:08;17.17;;;7.85;;
24873;SDS011;12945;42.648;23.370;2023-09-19T07:41:34;12.52;;;7.65;;
24873;SDS011;12945;42.648;23.370;2023-09-19T07:43:59;13.68;;;7.95;;
24873;SDS011;12945;42.648;23.370;2023-09-19T07:46:24;12.43;;;7.15;;
24873;SDS011;12945;42.648;23.370;2023-09-19T07:48:51;13.18;;;7.38;;
24873;SDS011;12945;42.648;23.370;2023-09-19T07:51:16;11.13;;;6.57;;
24873;SDS011;12945;42.648;23.370;2023-09-19T07:53:42;15.27;;;7.20;;
24873;SDS011;12945;42.648;23.370;2023-09-19T07:56:08;17.33;;;7.45;;
24873;SDS011;12945;42.648;23.370;2023-09-19T07:58:34;13.98;;;7.13;;
24873;SDS011;12945;42.648;23.370;2023-09-19T08:01:07;11.80;;;6.97;;
24873;SDS011;12945;42.648;23.370;2023-09-19T08:03:34;8.15;;;6.18;;
24873;SDS011;12945;42.648;23.370;2023-09-19T08:05:59;10.48;;;6.40;;
24873;SDS011;12945;42.648;23.370;2023-09-19T08:08:25;15.68;;;6.50;;
24873;SDS011;12945;42.648;23.370;2023-09-19T08:10:54;8.27;;;6.18;;
24873;SDS011;12945;42.648;23.370;2023-09-19T08:13:21;13.10;;;6.53;;
24873;SDS011;12945;42.648;23.370;2023-09-19T08:15:46;13.23;;;6.35;;
24873;SDS011;12945;42.648;23.370;2023-09-19T08:18:13;13.00;;;6.38;;
24873;SDS011;12945;42.648;23.370;2023-09-19T08:20:38;12.02;;;6.43;;
24873;SDS011;12945;42.648;23.370;2023-09-19T08:23:03;14.15;;;6.90;;
24873;SDS011;12945;42.648;23.370;2023-09-19T08:25:29;17.33;;;7.78;;
24873;SDS011;12945;42.648;23.370;2023-09-19T08:27:54;8.68;;;6.20;;
24873;SDS011;12945;42.648;23.370;2023-09-19T08:30:23;12.77;;;6.32;;
24873;SDS011;12945;42.648;23.370;2023-09-19T08:32:56;10.98;;;6.22;;
24873;SDS011;12945;42.648;23.370;2023-09-19T08:35:23;13.57;;;6.22;;
24873;SDS011;12945;42.648;23.370;2023-09-19T08:37:48;19.08;;;5.93;;
24873;SDS011;12945;42.648;23.370;2023-09-19T08:40:14;13.75;;;6.47;;
24873;SDS011;12945;42.648;23.370;2023-09-19T08:42:52;11.93;;;5.65;;
24873;SDS011;12945;42.648;23.370;2023-09-19T08:45:19;8.80;;;4.97;;
24873;SDS011;12945;42.648;23.370;2023-09-19T08:47:50;10.15;;;5.18;;
24873;SDS011;12945;42.648;23.370;2023-09-19T08:50:27;10.52;;;4.93;;
24873;SDS011;12945;42.648;23.370;2023-09-19T08:52:55;11.68;;;5.60;;
24873;SDS011;12945;42.648;23.370;2023-09-19T08:55:21;11.23;;;5.15;;
24873;SDS011;12945;42.648;23.370;2023-09-19T08:57:49;8.77;;;4.90;;
24873;SDS011;12945;42.648;23.370;2023-09-19T09:00:14;9.23;;;5.50;;
24873;SDS011;12945;42.648;23.370;2023-09-19T09:02:42;7.53;;;4.57;;
24873;SDS011;12945;42.648;23.370;2023-09-19T09:05:11;12.60;;;4.95;;
24873;SDS011;12945;42.648;23.370;2023-09-19T09:07:40;10.88;;;4.65;;
24873;SDS011;12945;42.648;23.370;2023-09-19T09:10:05;11.68;;;4.82;;
24873;SDS011;12945;42.648;23.370;2023-09-19T09:12:32;12.75;;;4.53;;
24873;SDS011;12945;42.648;23.370;2023-09-19T09:14:57;11.38;;;5.03;;
24873;SDS011;12945;42.648;23.370;2023-09-19T09:17:23;10.10;;;4.80;;
24873;SDS011;12945;42.648;23.370;2023-09-19T09:19:51;9.32;;;4.75;;
24873;SDS011;12945;42.648;23.370;2023-09-19T09:22:17;8.10;;;4.72;;
24873;SDS011;12945;42.648;23.370;2023-09-19T09:24:56;12.73;;;5.38;;
24873;SDS011;12945;42.648;23.370;2023-09-19T09:27:26;11.18;;;4.75;;
24873;SDS011;12945;42.648;23.370;2023-09-19T09:29:52;10.70;;;4.70;;
24873;SDS011;12945;42.648;23.370;2023-09-19T09:32:27;13.70;;;4.85;;
24873;SDS011;12945;42.648;23.370;2023-09-19T09:34:57;11.30;;;4.82;;
24873;SDS011;12945;42.648;23.370;2023-09-19T09:37:23;10.88;;;5.07;;
24873;SDS011;12945;42.648;23.370;2023-09-19T09:42:36;8.63;;;4.43;;
24873;SDS011;12945;42.648;23.370;2023-09-19T09:45:25;12.82;;;4.93;;
24873;SDS011;12945;42.648;23.370;2023-09-19T09:47:58;15.68;;;5.30;;
24873;SDS011;12945;42.648;23.370;2023-09-19T09:52:54;16.85;;;5.90;;
24873;SDS011;12945;42.648;23.370;2023-09-19T09:55:25;14.70;;;5.35;;
24873;SDS011;12945;42.648;23.370;2023-09-19T09:58:02;14.10;;;5.35;;
24873;SDS011;12945;42.648;23.370;2023-09-19T10:00:39;11.50;;;4.95;;
24873;SDS011;12945;42.648;23.370;2023-09-19T10:03:20;10.20;;;4.95;;
24873;SDS011;12945;42.648;23.370;2023-09-19T10:05:53;6.80;;;4.70;;
24873;SDS011;12945;42.648;23.370;2023-09-19T10:08:20;12.32;;;4.75;;
24873;SDS011;12945;42.648;23.370;2023-09-19T10:10:46;11.65;;;5.20;;
24873;SDS011;12945;42.648;23.370;2023-09-19T10:13:17;10.52;;;4.85;;
24873;SDS011;12945;42.648;23.370;2023-09-19T10:15:49;9.95;;;4.90;;
24873;SDS011;12945;42.648;23.370;2023-09-19T10:18:24;11.48;;;5.43;;
24873;SDS011;12945;42.648;23.370;2023-09-19T10:20:49;9.02;;;5.03;;
24873;SDS011;12945;42.648;23.370;2023-09-19T10:23:16;12.02;;;4.95;;
24873;SDS011;12945;42.648;23.370;2023-09-19T10:25:47;12.82;;;5.07;;
24873;SDS011;12945;42.648;23.370;2023-09-19T10:28:13;9.98;;;5.38;;
24873;SDS011;12945;42.648;23.370;2023-09-19T10:30:41;10.98;;;4.93;;
24873;SDS011;12945;42.648;23.370;2023-09-19T10:33:08;11.20;;;5.25;;
24873;SDS011;12945;42.648;23.370;2023-09-19T10:35:34;17.98;;;7.30;;
24873;SDS011;12945;42.648;23.370;2023-09-19T10:38:03;9.95;;;5.70;;
24873;SDS011;12945;42.648;23.370;2023-09-19T10:40:29;11.55;;;5.32;;
24873;SDS011;12945;42.648;23.370;2023-09-19T10:42:59;11.07;;;5.25;;
24873;SDS011;12945;42.648;23.370;2023-09-19T10:45:25;8.30;;;5.15;;
24873;SDS011;12945;42.648;23.370;2023-09-19T10:47:52;15.50;;;5.50;;
24873;SDS011;12945;42.648;23.370;2023-09-19T10:50:20;11.25;;;4.75;;
24873;SDS011;12945;42.648;23.370;2023-09-19T10:52:47;14.40;;;5.90;;
24873;SDS011;12945;42.648;23.370;2023-09-19T10:55:18;10.40;;;5.05;;
24873;SDS011;12945;42.648;23.370;2023-09-19T10:57:45;11.65;;;5.30;;
24873;SDS011;12945;42.648;23.370;2023-09-19T11:00:11;10.15;;;4.80;;
24873;SDS011;12945;42.648;23.370;2023-09-19T11:06:08;6.97;;;5.07;;
24873;SDS011;12945;42.648;23.370;2023-09-19T11:16:39;8.13;;;4.90;;
24873;SDS011;12945;42.648;23.370;2023-09-19T11:19:05;6.28;;;4.75;;
24873;SDS011;12945;42.648;23.370;2023-09-19T11:26:47;9.20;;;5.07;;
24873;SDS011;12945;42.648;23.370;2023-09-19T11:29:25;12.30;;;5.45;;
24873;SDS011;12945;42.648;23.370;2023-09-19T11:31:51;14.35;;;5.03;;
24873;SDS011;12945;42.648;23.370;2023-09-19T11:37:00;8.95;;;4.70;;
24873;SDS011;12945;42.648;23.370;2023-09-19T11:39:29;9.13;;;4.53;;
24873;SDS011;12945;42.648;23.370;2023-09-19T11:41:54;9.70;;;5.25;;
24873;SDS011;12945;42.648;23.370;2023-09-19T11:44:31;7.30;;;4.80;;
24873;SDS011;12945;42.648;23.370;2023-09-19T11:46:59;7.68;;;4.93;;
24873;SDS011;12945;42.648;23.370;2023-09-19T11:49:31;12.98;;;4.60;;
24873;SDS011;12945;42.648;23.370;2023-09-19T11:51:57;13.02;;;4.85;;
24873;SDS011;12945;42.648;23.370;2023-09-19T11:54:26;8.05;;;4.80;;
24873;SDS011;12945;42.648;23.370;2023-09-19T11:56:56;9.32;;;5.18;;
24873;SDS011;12945;42.648;23.370;2023-09-19T11:59:31;6.57;;;4.72;;
24873;SDS011;12945;42.648;23.370;2023-09-19T12:01:59;11.07;;;5.30;;
24873;SDS011;12945;42.648;23.370;2023-09-19T12:04:35;13.88;;;5.15;;
24873;SDS011;12945;42.648;23.370;2023-09-19T12:07:07;8.45;;;5.30;;
24873;SDS011;12945;42.648;23.370;2023-09-19T12:09:40;8.25;;;5.15;;
24873;SDS011;12945;42.648;23.370;2023-09-19T12:12:09;10.27;;;5.13;;
24873;SDS011;12945;42.648;23.370;2023-09-19T12:14:34;12.65;;;4.85;;
24873;SDS011;12945;42.648;23.370;2023-09-19T12:17:00;10.98;;;4.72;;
24873;SDS011;12945;42.648;23.370;2023-09-19T12:19:27;9.00;;;4.65;;
24873;SDS011;12945;42.648;23.370;2023-09-19T12:22:03;9.65;;;4.75;;
24873;SDS011;12945;42.648;23.370;2023-09-19T12:24:31;12.65;;;4.60;;
24873;SDS011;12945;42.648;23.370;2023-09-19T12:27:03;15.23;;;5.18;;
24873;SDS011;12945;42.648;23.370;2023-09-19T12:29:30;7.13;;;4.97;;
24873;SDS011;12945;42.648;23.370;2023-09-19T12:31:59;11.85;;;4.65;;
24873;SDS011;12945;42.648;23.370;2023-09-19T12:34:31;9.95;;;4.32;;
24873;SDS011;12945;42.648;23.370;2023-09-19T12:37:03;9.05;;;4.55;;
24873;SDS011;12945;42.648;23.370;2023-09-19T12:39:29;10.03;;;4.17;;
24873;SDS011;12945;42.648;23.370;2023-09-19T12:41:54;10.60;;;4.63;;
24873;SDS011;12945;42.648;23.370;2023-09-19T12:44:20;9.18;;;4.22;;
24873;SDS011;12945;42.648;23.370;2023-09-19T12:46:45;9.73;;;4.82;;
24873;SDS011;12945;42.648;23.370;2023-09-19T12:49:17;7.35;;;4.07;;
24873;SDS011;12945;42.648;23.370;2023-09-19T12:51:43;9.23;;;4.82;;
24873;SDS011;12945;42.648;23.370;2023-09-19T12:54:12;6.10;;;4.72;;
24873;SDS011;12945;42.648;23.370;2023-09-19T12:56:40;7.10;;;3.95;;
24873;SDS011;12945;42.648;23.370;2023-09-19T12:59:15;6.75;;;3.50;;
24873;SDS011;12945;42.648;23.370;2023-09-19T13:01:41;7.05;;;4.10;;
24873;SDS011;12945;42.648;23.370;2023-09-19T13:04:19;6.65;;;3.65;;
24873;SDS011;12945;42.648;23.370;2023-09-19T13:06:45;11.95;;;3.97;;
24873;SDS011;12945;42.648;23.370;2023-09-19T13:09:14;7.15;;;4.43;;
24873;SDS011;12945;42.648;23.370;2023-09-19T13:11:39;6.93;;;4.35;;
24873;SDS011;12945;42.648;23.370;2023-09-19T13:14:25;7.55;;;4.63;;
24873;SDS011;12945;42.648;23.370;2023-09-19T13:17:05;5.85;;;4.40;;
24873;SDS011;12945;42.648;23.370;2023-09-19T13:19:44;5.25;;;4.00;;
24873;SDS011;12945;42.648;23.370;2023-09-19T13:25:08;11.15;;;4.22;;
24873;SDS011;12945;42.648;23.370;2023-09-19T13:27:37;7.43;;;4.05;;
24873;SDS011;12945;42.648;23.370;2023-09-19T13:30:02;10.17;;;4.00;;
24873;SDS011;12945;42.648;23.370;2023-09-19T13:32:27;7.20;;;4.22;;
24873;SDS011;12945;42.648;23.370;2023-09-19T13:34:53;7.78;;;4.18;;
24873;SDS011;12945;42.648;23.370;2023-09-19T13:37:18;6.20;;;4.50;;
24873;SDS011;12945;42.648;23.370;2023-09-19T13:39:44;9.07;;;3.90;;
24873;SDS011;12945;42.648;23.370;2023-09-19T13:42:12;9.98;;;4.40;;
24873;SDS011;12945;42.648;23.370;2023-09-19T13:44:38;9.48;;;4.22;;
24873;SDS011;12945;42.648;23.370;2023-09-19T13:47:03;12.73;;;4.45;;
24873;SDS011;12945;42.648;23.370;2023-09-19T13:49:34;6.00;;;4.05;;
24873;SDS011;12945;42.648;23.370;2023-09-19T13:52:00;11.23;;;4.53;;
24873;SDS011;12945;42.648;23.370;2023-09-19T13:54:28;7.38;;;4.72;;
24873;SDS011;12945;42.648;23.370;2023-09-19T13:56:53;6.75;;;4.30;;
24873;SDS011;12945;42.648;23.370;2023-09-19T13:59:19;8.88;;;4.40;;
24873;SDS011;12945;42.648;23.370;2023-09-19T14:01:46;7.72;;;4.00;;
24873;SDS011;12945;42.648;23.370;2023-09-19T14:04:11;6.97;;;4.20;;
24873;SDS011;12945;42.648;23.370;2023-09-19T14:06:37;5.70;;;4.35;;
24873;SDS011;12945;42.648;23.370;2023-09-19T14:09:02;8.75;;;4.40;;
24873;SDS011;12945;42.648;23.370;2023-09-19T14:11:28;7.05;;;4.20;;
24873;SDS011;12945;42.648;23.370;2023-09-19T14:13:54;9.32;;;5.32;;
24873;SDS011;12945;42.648;23.370;2023-09-19T14:16:19;9.88;;;5.20;;
24873;SDS011;12945;42.648;23.370;2023-09-19T14:18:47;8.25;;;4.50;;
24873;SDS011;12945;42.648;23.370;2023-09-19T14:21:13;7.93;;;4.55;;
24873;SDS011;12945;42.648;23.370;2023-09-19T14:23:39;12.77;;;4.45;;
24873;SDS011;12945;42.648;23.370;2023-09-19T14:26:06;11.02;;;4.38;;
24873;SDS011;12945;42.648;23.370;2023-09-19T14:28:32;8.75;;;4.57;;
24873;SDS011;12945;42.648;23.370;2023-09-19T14:31:03;6.10;;;4.30;;
24873;SDS011;12945;42.648;23.370;2023-09-19T14:33:28;5.90;;;4.55;;
24873;SDS011;12945;42.648;23.370;2023-09-19T14:35:54;8.30;;;4.90;;
24873;SDS011;12945;42.648;23.370;2023-09-19T14:38:19;8.23;;;4.67;;
24873;SDS011;12945;42.648;23.370;2023-09-19T14:40:45;8.30;;;4.65;;
24873;SDS011;12945;42.648;23.370;2023-09-19T14:43:10;11.33;;;4.47;;
24873;SDS011;12945;42.648;23.370;2023-09-19T14:45:36;8.23;;;4.70;;
24873;SDS011;12945;42.648;23.370;2023-09-19T14:48:01;7.15;;;4.57;;
24873;SDS011;12945;42.648;23.370;2023-09-19T14:50:30;5.93;;;4.45;;
24873;SDS011;12945;42.648;23.370;2023-09-19T14:52:56;7.63;;;4.65;;
24873;SDS011;12945;42.648;23.370;2023-09-19T14:55:21;6.50;;;4.88;;
24873;SDS011;12945;42.648;23.370;2023-09-19T14:57:50;13.63;;;5.07;;
24873;SDS011;12945;42.648;23.370;2023-09-19T15:00:17;10.40;;;5.80;;
24873;SDS011;12945;42.648;23.370;2023-09-19T15:02:44;10.27;;;5.07;;
24873;SDS011;12945;42.648;23.370;2023-09-19T15:05:10;7.43;;;4.93;;
24873;SDS011;12945;42.648;23.370;2023-09-19T15:07:36;7.22;;;4.78;;
24873;SDS011;12945;42.648;23.370;2023-09-19T15:10:03;8.27;;;5.30;;
24873;SDS011;12945;42.648;23.370;2023-09-19T15:12:32;10.68;;;5.25;;
24873;SDS011;12945;42.648;23.370;2023-09-19T15:14:58;9.73;;;5.60;;